Time;durP1;ratioP1;P1;durP2;ratioP2;P2;SDS_P1;SDS_P2;PMS_P1;PMS_P2;Temp;Humidity;BMP_temperature;BMP_pressure;BME280_temperature;BME280_humidity;BME280_pressure;Samples;Min_cycle;Max_cycle;Signal;HPM_P1;HPM_P2
2022/06/22 00:02:21;;;;;;;1.55;1.45;;;21.30;59.50;;;;;;5044753;28;43514;-63
2022/06/22 00:04:55;;;;;;;2.25;1.70;;;21.30;59.50;;;;;;5042869;28;43404;-63
2022/06/22 00:07:40;;;;;;;1.60;1.50;;;21.20;59.50;;;;;;5044414;28;43441;-63
2022/06/22 00:10:19;;;;;;;1.38;1.35;;;21.20;59.50;;;;;;5037977;28;44144;-63
2022/06/22 00:12:53;;;;;;;1.50;1.40;;;21.30;59.50;;;;;;5043413;28;43681;-63
2022/06/22 00:15:40;;;;;;;1.40;1.30;;;21.20;59.40;;;;;;5044223;28;43464;-63
2022/06/22 00:18:38;;;;;;;1.40;1.30;;;21.30;59.50;;;;;;5044671;28;43494;-63
2022/06/22 00:21:33;;;;;;;1.70;1.60;;;21.30;59.40;;;;;;5041575;28;44657;-63
2022/06/22 00:24:22;;;;;;;1.35;1.30;;;21.20;59.40;;;;;;5044454;28;43458;-63
2022/06/22 00:27:13;;;;;;;1.67;1.58;;;21.20;59.40;;;;;;5043876;28;43511;-63
2022/06/22 00:29:40;;;;;;;1.60;1.50;;;21.20;59.40;;;;;;5037717;28;43598;-63
2022/06/22 00:32:15;;;;;;;1.50;1.40;;;21.20;59.40;;;;;;5042984;28;43830;-63
2022/06/22 00:34:43;;;;;;;1.85;1.30;;;21.20;59.40;;;;;;5032163;28;43732;-63
2022/06/22 00:37:17;;;;;;;1.80;1.50;;;21.10;59.40;;;;;;5043902;28;43501;-63
2022/06/22 00:40:13;;;;;;;1.60;1.50;;;21.10;59.30;;;;;;5044197;28;43404;-63
2022/06/22 00:42:50;;;;;;;1.65;1.55;;;21.20;59.40;;;;;;5032146;28;43986;-63
2022/06/22 00:45:27;;;;;;;1.70;1.60;;;21.10;59.30;;;;;;5043572;28;43478;-63
2022/06/22 00:48:12;;;;;;;1.42;1.33;;;21.10;59.30;;;;;;5043545;28;43494;-63
2022/06/22 00:51:04;;;;;;;1.77;1.65;;;21.20;59.30;;;;;;5032701;28;43614;-63
2022/06/22 00:53:51;;;;;;;2.00;1.40;;;21.20;59.30;;;;;;5017082;28;44098;-63
2022/06/22 00:56:28;;;;;;;1.80;1.67;;;21.10;59.30;;;;;;5037465;28;43477;-63
2022/06/22 00:59:22;;;;;;;1.63;1.52;;;21.10;59.30;;;;;;5048244;28;44126;-64
2022/06/22 01:02:04;;;;;;;1.30;1.20;;;21.10;59.30;;;;;;5040603;28;43661;-63
2022/06/22 01:04:45;;;;;;;1.52;1.42;;;21.10;59.40;;;;;;5039084;28;45181;-63
2022/06/22 01:07:16;;;;;;;;;;;21.10;59.30;;;;;;5052552;28;43654;-63
2022/06/22 01:09:51;;;;;;;1.67;1.50;;;21.10;59.30;;;;;;5043978;28;43648;-63
2022/06/22 01:12:29;;;;;;;1.40;1.30;;;21.00;59.30;;;;;;5043605;28;43543;-63
2022/06/22 01:15:11;;;;;;;1.60;1.50;;;21.00;59.30;;;;;;5038646;28;44021;-63
2022/06/22 01:18:02;;;;;;;1.40;1.30;;;21.00;59.30;;;;;;5042713;28;43602;-63
2022/06/22 01:20:32;;;;;;;1.60;1.50;;;21.00;59.30;;;;;;5043747;28;43433;-63
2022/06/22 01:23:38;;;;;;;2.22;1.60;;;21.00;59.30;;;;;;5043101;28;43610;-63
2022/06/22 01:26:16;;;;;;;1.55;1.42;;;21.00;59.30;;;;;;5042541;28;44036;-63
2022/06/22 01:28:58;;;;;;;1.58;1.42;;;21.00;59.30;;;;;;5043242;28;43704;-63
2022/06/22 01:31:27;;;;;;;1.70;1.60;;;21.00;59.30;;;;;;5040620;28;43479;-63
2022/06/22 01:33:55;;;;;;;1.70;1.60;;;21.00;59.30;;;;;;5042942;28;43939;-63
2022/06/22 01:36:32;;;;;;;1.60;1.50;;;21.00;59.30;;;;;;5042966;28;44157;-63
2022/06/22 01:39:01;;;;;;;1.60;1.50;;;21.00;59.30;;;;;;5042438;28;43644;-63
2022/06/22 01:41:38;;;;;;;1.23;1.23;;;21.00;60.00;;;;;;5042964;28;43448;-63
2022/06/22 01:44:19;;;;;;;1.45;1.35;;;20.90;59.30;;;;;;5033429;28;43451;-63
2022/06/22 01:47:08;;;;;;;1.70;1.60;;;20.90;59.30;;;;;;5041325;28;44162;-63
2022/06/22 01:50:16;;;;;;;1.42;1.33;;;20.90;59.30;;;;;;5042965;28;43769;-63
2022/06/22 01:53:13;;;;;;;1.48;1.38;;;20.90;59.30;;;;;;5039714;28;43442;-63
2022/06/22 01:55:52;;;;;;;1.25;1.15;;;20.90;59.30;;;;;;5032470;28;43468;-63
2022/06/22 01:58:19;;;;;;;1.30;1.30;;;20.90;59.30;;;;;;5043797;28;44961;-63
2022/06/22 02:01:00;;;;;;;1.30;1.30;;;20.90;59.30;;;;;;5042931;28;43530;-63
2022/06/22 02:03:36;;;;;;;1.15;1.15;;;20.90;59.30;;;;;;5042021;28;43443;-63
2022/06/22 02:09:09;;;;;;;1.45;1.35;;;20.80;59.30;;;;;;5043072;28;43809;-63
2022/06/22 02:11:43;;;;;;;1.10;1.10;;;20.80;59.30;;;;;;5033057;28;43586;-63
2022/06/22 02:14:22;;;;;;;1.65;1.42;;;20.80;59.30;;;;;;5042544;28;43486;-63
2022/06/22 02:16:57;;;;;;;1.48;1.27;;;20.80;59.30;;;;;;5041985;28;43481;-63
2022/06/22 02:19:28;;;;;;;1.40;1.30;;;20.80;59.30;;;;;;5042787;28;44469;-63
2022/06/22 02:21:57;;;;;;;1.30;1.20;;;20.80;59.30;;;;;;5041143;28;43539;-63
2022/06/22 02:24:31;;;;;;;1.40;1.30;;;20.80;59.30;;;;;;5041335;28;43433;-63
2022/06/22 02:27:07;;;;;;;1.20;1.10;;;20.80;59.30;;;;;;5039221;28;43520;-63
2022/06/22 02:29:50;;;;;;;1.30;1.25;;;20.80;59.30;;;;;;5039004;28;44028;-63
2022/06/22 02:32:25;;;;;;;1.40;1.30;;;20.80;59.30;;;;;;5039798;28;43491;-63
2022/06/22 02:34:55;;;;;;;1.40;1.30;;;20.70;59.30;;;;;;5035001;28;43464;-63
2022/06/22 02:37:27;;;;;;;1.20;1.20;;;20.70;59.30;;;;;;5041932;28;43605;-64
2022/06/22 02:39:59;;;;;;;1.40;1.30;;;20.70;59.30;;;;;;5041786;28;45003;-63
2022/06/22 02:45:17;;;;;;;1.20;1.20;;;20.70;59.30;;;;;;5041551;28;43508;-64
2022/06/22 02:47:57;;;;;;;1.52;1.42;;;20.70;59.30;;;;;;5041510;28;43494;-63
2022/06/22 02:50:35;;;;;;;1.42;1.33;;;20.70;59.30;;;;;;5058586;28;44285;-63
2022/06/22 02:53:34;;;;;;;1.27;1.27;;;20.70;59.30;;;;;;5074165;28;43968;-63
2022/06/22 02:56:04;;;;;;;1.60;1.50;;;20.70;59.30;;;;;;5040855;28;43490;-63
2022/06/22 02:58:35;;;;;;;1.23;1.13;;;20.70;59.30;;;;;;5042142;28;43431;-63
2022/06/22 03:01:12;;;;;;;1.30;1.17;;;20.60;59.30;;;;;;5046137;28;43752;-63
2022/06/22 03:03:46;;;;;;;1.10;1.10;;;20.60;59.20;;;;;;5044373;28;43476;-63
2022/06/22 03:06:16;;;;;;;1.17;1.17;;;20.60;59.30;;;;;;5048859;28;43467;-63
2022/06/22 03:08:43;;;;;;;1.17;1.15;;;20.60;59.30;;;;;;5055107;28;43609;-63
2022/06/22 03:11:12;;;;;;;1.20;1.20;;;20.60;59.30;;;;;;5045385;28;43571;-63
2022/06/22 03:13:43;;;;;;;1.45;1.35;;;20.60;59.30;;;;;;5043462;28;43745;-63
2022/06/22 03:16:26;;;;;;;1.23;1.13;;;20.60;59.30;;;;;;5045657;28;43462;-63
2022/06/22 03:18:57;;;;;;;1.50;1.40;;;20.60;59.20;;;;;;5044107;28;43462;-63
2022/06/22 03:21:24;;;;;;;1.65;1.10;;;20.60;59.20;;;;;;5044406;28;44669;-63
2022/06/22 03:24:02;;;;;;;1.23;1.23;;;20.60;59.20;;;;;;5044661;28;43469;-63
2022/06/22 03:26:37;;;;;;;1.30;1.20;;;20.60;59.30;;;;;;5045162;28;44195;-64
2022/06/22 03:29:27;;;;;;;1.33;1.30;;;20.60;59.20;;;;;;5044379;28;44009;-63
2022/06/22 03:32:01;;;;;;;0.90;0.90;;;20.60;59.20;;;;;;5040081;28;45039;-63
2022/06/22 03:34:39;;;;;;;0.98;0.98;;;20.60;59.20;;;;;;5044769;28;44797;-63
2022/06/22 03:37:22;;;;;;;1.67;1.50;;;20.60;59.20;;;;;;5044798;28;43434;-64
2022/06/22 03:39:55;;;;;;;1.20;1.10;;;20.60;59.20;;;;;;5045394;28;43521;-63
2022/06/22 03:42:36;;;;;;;1.02;1.00;;;20.60;59.20;;;;;;5038114;28;44142;-63
2022/06/22 03:45:17;;;;;;;1.20;1.20;;;20.50;59.20;;;;;;5042532;28;43657;-64
2022/06/22 03:47:51;;;;;;;;;;;20.50;59.20;;;;;;5045523;28;44027;-63
2022/06/22 03:50:47;;;;;;;1.33;1.23;;;20.50;59.20;;;;;;5044095;28;43515;-63
2022/06/22 03:53:33;;;;;;;1.10;1.10;;;20.50;59.30;;;;;;5044449;28;43810;-63
2022/06/22 03:56:08;;;;;;;0.90;0.90;;;20.50;59.30;;;;;;5044621;28;43390;-63
2022/06/22 03:58:37;;;;;;;1.00;1.00;;;20.50;59.30;;;;;;5043915;28;43497;-63
2022/06/22 04:01:05;;;;;;;0.90;0.90;;;20.40;59.20;;;;;;5043621;28;43471;-63
2022/06/22 04:03:33;;;;;;;0.98;0.98;;;20.50;59.20;;;;;;5043895;28;44160;-63
2022/06/22 04:06:03;;;;;;;0.90;0.90;;;20.40;59.80;;;;;;5044127;28;43505;-63
2022/06/22 04:08:34;;;;;;;0.93;0.93;;;20.40;59.20;;;;;;5043329;28;43436;-63
2022/06/22 04:11:13;;;;;;;0.90;0.90;;;20.40;59.20;;;;;;5037330;28;43443;-63
2022/06/22 04:13:50;;;;;;;0.90;0.90;;;20.40;59.20;;;;;;5035769;28;44066;-63
2022/06/22 04:16:43;;;;;;;1.00;1.00;;;20.40;59.20;;;;;;5043812;28;43633;-64
2022/06/22 04:19:39;;;;;;;0.77;0.77;;;20.40;59.20;;;;;;5036503;28;43788;-63
2022/06/22 04:22:15;;;;;;;1.10;1.10;;;20.40;59.20;;;;;;5039666;28;43979;-63
2022/06/22 04:24:52;;;;;;;0.60;0.60;;;20.40;59.20;;;;;;5043925;28;46159;-63
2022/06/22 04:27:32;;;;;;;1.20;1.20;;;20.30;59.20;;;;;;5042846;28;43560;-63
2022/06/22 04:30:09;;;;;;;0.60;0.60;;;20.40;59.20;;;;;;5040547;28;43479;-63
2022/06/22 04:32:54;;;;;;;1.00;0.90;;;20.40;59.20;;;;;;5042975;28;43471;-63
2022/06/22 04:35:36;;;;;;;0.90;0.90;;;20.40;59.20;;;;;;5044147;28;43787;-64
2022/06/22 04:38:17;;;;;;;0.80;0.80;;;20.30;59.20;;;;;;5041082;28;43530;-63
2022/06/22 04:41:12;;;;;;;0.90;0.90;;;20.30;59.20;;;;;;5044235;28;43499;-63
2022/06/22 04:43:40;;;;;;;1.00;1.00;;;20.30;59.20;;;;;;5043882;28;43490;-63
2022/06/22 04:46:12;;;;;;;0.80;0.80;;;20.30;59.30;;;;;;5042620;28;44089;-63
2022/06/22 04:48:46;;;;;;;0.80;0.80;;;20.30;59.20;;;;;;5043572;28;43436;-63
2022/06/22 04:51:20;;;;;;;0.80;0.80;;;20.30;59.20;;;;;;5044810;28;43415;-63
2022/06/22 04:53:58;;;;;;;1.20;1.10;;;20.30;59.30;;;;;;5040816;28;43559;-63
2022/06/22 04:56:33;;;;;;;0.80;0.80;;;20.20;59.20;;;;;;5042052;28;44388;-65
2022/06/22 04:59:01;;;;;;;0.85;0.80;;;20.30;59.30;;;;;;5036676;28;43435;-63
2022/06/22 05:01:33;;;;;;;0.90;0.90;;;20.30;59.30;;;;;;5044161;28;43494;-63
2022/06/22 05:04:11;;;;;;;1.63;0.95;;;20.30;59.30;;;;;;5043542;28;43506;-63
2022/06/22 05:06:51;;;;;;;0.80;0.80;;;20.20;59.30;;;;;;5042647;28;44005;-63
2022/06/22 05:09:54;;;;;;;0.80;0.80;;;20.20;59.30;;;;;;5040939;28;43539;-63
2022/06/22 05:12:27;;;;;;;0.80;0.80;;;20.20;59.30;;;;;;5032541;28;43504;-63
2022/06/22 05:14:57;;;;;;;0.80;0.80;;;20.20;59.30;;;;;;5043418;28;43409;-63
2022/06/22 05:17:29;;;;;;;1.38;0.98;;;20.20;59.30;;;;;;5042419;28;44027;-63
2022/06/22 05:20:13;;;;;;;0.80;0.80;;;20.20;59.40;;;;;;5042934;28;44045;-63
2022/06/22 05:22:40;;;;;;;1.02;0.93;;;20.20;59.50;;;;;;5075693;28;43538;-63
2022/06/22 05:25:11;;;;;;;1.10;0.80;;;20.20;59.50;;;;;;5042260;28;43538;-63
2022/06/22 05:27:54;;;;;;;1.23;0.80;;;20.20;59.50;;;;;;5043198;28;43862;-63
2022/06/22 05:30:23;;;;;;;0.85;0.85;;;20.10;60.10;;;;;;5043228;28;43673;-63
2022/06/22 05:33:04;;;;;;;0.98;0.93;;;20.10;59.60;;;;;;5042205;28;43444;-63
2022/06/22 05:35:46;;;;;;;0.80;0.80;;;20.10;59.50;;;;;;5035005;28;43383;-63
2022/06/22 05:38:17;;;;;;;0.70;0.70;;;20.10;59.60;;;;;;5034546;28;44067;-63
2022/06/22 05:40:47;;;;;;;1.45;0.80;;;20.10;59.60;;;;;;5043193;28;43522;-63
2022/06/22 05:43:14;;;;;;;0.95;0.85;;;20.10;59.60;;;;;;5042538;28;43470;-63
2022/06/22 05:45:49;;;;;;;1.00;0.90;;;20.10;59.60;;;;;;5043134;28;43992;-63
2022/06/22 05:48:23;;;;;;;0.63;0.63;;;20.10;59.60;;;;;;5042875;28;43859;-63
2022/06/22 05:51:01;;;;;;;0.65;0.65;;;20.10;59.60;;;;;;5073917;28;43542;-63
2022/06/22 05:53:44;;;;;;;0.98;0.88;;;20.10;59.70;;;;;;5075592;28;43582;-64
2022/06/22 05:56:30;;;;;;;0.80;0.80;;;20.10;59.70;;;;;;5039858;28;43430;-64
2022/06/22 05:59:21;;;;;;;0.70;0.70;;;20.00;59.70;;;;;;5041911;28;44912;-63
2022/06/22 06:02:01;;;;;;;0.80;0.80;;;20.10;59.80;;;;;;5042744;28;43946;-63
2022/06/22 06:04:53;;;;;;;1.42;1.00;;;20.10;59.80;;;;;;5041866;28;43518;-63
2022/06/22 06:07:37;;;;;;;0.75;0.75;;;20.00;59.80;;;;;;5050424;28;43500;-63
2022/06/22 06:10:14;;;;;;;0.80;0.80;;;20.00;59.80;;;;;;5036860;28;45001;-64
2022/06/22 06:12:51;;;;;;;0.82;0.80;;;20.10;59.90;;;;;;5040245;28;43690;-64
2022/06/22 06:15:18;;;;;;;0.80;0.80;;;20.00;59.80;;;;;;5047875;28;43528;-63
2022/06/22 06:17:50;;;;;;;1.23;0.90;;;20.00;59.90;;;;;;5042238;28;43461;-64
2022/06/22 06:20:23;;;;;;;0.82;0.82;;;20.10;59.90;;;;;;5040864;28;44711;-63
2022/06/22 06:22:53;;;;;;;0.90;0.90;;;20.10;59.90;;;;;;5040969;28;43500;-63
2022/06/22 06:29:20;;;;;;;1.58;0.82;;;20.10;59.90;;;;;;5040954;28;43438;-63
2022/06/22 06:32:22;;;;;;;1.08;0.98;;;20.10;60.00;;;;;;5015565;28;44041;-63
2022/06/22 06:35:06;;;;;;;0.98;0.98;;;20.00;59.80;;;;;;5031104;28;43948;-63
2022/06/22 06:37:51;;;;;;;3.70;0.90;;;20.10;60.00;;;;;;5041872;28;44170;-62
2022/06/22 06:40:31;;;;;;;1.35;1.00;;;20.00;60.00;;;;;;5042329;28;43479;-63
2022/06/22 06:43:28;;;;;;;0.90;0.82;;;20.10;60.00;;;;;;5042505;28;44652;-63
2022/06/22 06:45:57;;;;;;;1.40;0.90;;;20.10;59.90;;;;;;5033672;28;43893;-63
2022/06/22 06:48:31;;;;;;;1.00;1.00;;;20.10;59.90;;;;;;5041341;28;43442;-63
2022/06/22 06:51:03;;;;;;;0.93;0.93;;;20.10;59.90;;;;;;5050811;28;44098;-63
2022/06/22 06:53:39;;;;;;;0.85;0.85;;;20.10;59.80;;;;;;5041328;28;45474;-63
2022/06/22 06:56:34;;;;;;;0.90;0.90;;;20.10;59.80;;;;;;5038431;28;43946;-63
2022/06/22 06:59:05;;;;;;;1.25;0.98;;;20.10;59.80;;;;;;5038774;28;43466;-63
2022/06/22 07:01:36;;;;;;;1.05;1.00;;;20.10;59.80;;;;;;5040491;28;43602;-63
2022/06/22 07:04:08;;;;;;;0.88;0.88;;;20.10;59.70;;;;;;5039328;28;43785;-63
2022/06/22 07:06:37;;;;;;;1.20;1.10;;;20.10;59.70;;;;;;5039478;28;43872;-63
2022/06/22 07:09:13;;;;;;;0.90;0.90;;;20.10;59.70;;;;;;5040873;28;43607;-63
2022/06/22 07:11:51;;;;;;;0.93;0.93;;;20.10;59.60;;;;;;5040031;28;43501;-63
2022/06/22 07:14:29;;;;;;;1.00;1.00;;;20.10;59.60;;;;;;5040053;28;44062;-63
2022/06/22 07:17:05;;;;;;;1.38;1.00;;;20.10;59.80;;;;;;5040702;28;43464;-63
2022/06/22 07:19:38;;;;;;;0.90;0.90;;;20.10;59.70;;;;;;5039843;28;44497;-63
2022/06/22 07:22:31;;;;;;;0.98;0.98;;;20.10;59.70;;;;;;5037427;28;43540;-63
2022/06/22 07:25:06;;;;;;;0.90;0.90;;;20.10;59.70;;;;;;5037507;28;43746;-63
2022/06/22 07:27:46;;;;;;;0.77;0.77;;;20.10;59.70;;;;;;5038775;28;43555;-63
2022/06/22 07:30:16;;;;;;;0.75;0.75;;;20.10;59.70;;;;;;5041332;28;43532;-63
2022/06/22 07:32:57;;;;;;;0.90;0.90;;;20.10;59.60;;;;;;5039494;28;43509;-63
2022/06/22 07:36:05;;;;;;;1.25;0.93;;;20.10;59.70;;;;;;5040197;28;43811;-62
2022/06/22 07:38:48;;;;;;;0.85;0.85;;;20.10;59.70;;;;;;5037445;28;43487;-63
2022/06/22 07:41:18;;;;;;;1.02;1.02;;;20.10;59.70;;;;;;5039436;28;43497;-63
2022/06/22 07:43:50;;;;;;;1.10;1.10;;;20.10;59.70;;;;;;5040104;28;43519;-63
2022/06/22 07:46:44;;;;;;;0.88;0.88;;;20.10;59.70;;;;;;5041034;28;43555;-63
2022/06/22 07:49:17;;;;;;;1.00;1.00;;;20.20;59.70;;;;;;5044103;28;43657;-62
2022/06/22 07:51:53;;;;;;;1.05;1.00;;;20.20;59.70;;;;;;5045537;28;43602;-63
2022/06/22 07:54:33;;;;;;;0.90;0.90;;;20.20;59.60;;;;;;5043140;28;43538;-63
2022/06/22 07:57:01;;;;;;;1.10;1.00;;;20.20;59.60;;;;;;5043977;28;44048;-63
2022/06/22 07:59:54;;;;;;;0.85;0.85;;;20.20;59.60;;;;;;5024024;28;43717;-63
2022/06/22 08:02:27;;;;;;;0.88;0.88;;;20.20;59.60;;;;;;5020759;28;43510;-62
2022/06/22 08:05:04;;;;;;;1.17;1.17;;;20.20;59.70;;;;;;5024491;28;43538;-63
2022/06/22 08:07:50;;;;;;;1.38;1.27;;;20.20;59.60;;;;;;5023841;28;43736;-63
2022/06/22 08:10:38;;;;;;;1.20;1.00;;;20.30;59.70;;;;;;5023897;28;44136;-62
2022/06/22 08:13:12;;;;;;;0.90;0.90;;;20.20;59.60;;;;;;5023094;28;43519;-63
2022/06/22 08:15:48;;;;;;;1.20;1.08;;;20.30;59.60;;;;;;5024562;28;43574;-62
2022/06/22 08:18:18;;;;;;;0.93;0.93;;;20.30;59.60;;;;;;5020605;28;44189;-63
2022/06/22 08:20:49;;;;;;;1.00;1.00;;;20.30;59.60;;;;;;5023926;28;43410;-62
2022/06/22 08:23:34;;;;;;;1.23;1.13;;;20.30;59.60;;;;;;5021860;28;43452;-63
2022/06/22 08:26:06;;;;;;;1.00;1.00;;;20.30;59.60;;;;;;5023629;28;43399;-62
2022/06/22 08:28:37;;;;;;;1.02;1.02;;;20.30;59.60;;;;;;5024868;28;44399;-62
2022/06/22 08:31:06;;;;;;;1.13;1.10;;;20.30;59.60;;;;;;5024253;28;43571;-62
2022/06/22 08:33:38;;;;;;;1.30;1.20;;;20.30;59.60;;;;;;5024574;28;43467;-64
2022/06/22 08:36:22;;;;;;;2.13;1.40;;;20.30;59.60;;;;;;5022930;28;43391;-62
2022/06/22 08:39:04;;;;;;;1.90;1.33;;;20.30;59.70;;;;;;5023459;28;43800;-63
2022/06/22 08:41:41;;;;;;;1.50;1.40;;;20.30;59.60;;;;;;5024046;28;43476;-63
2022/06/22 08:44:59;;;;;;;1.30;1.20;;;20.30;59.70;;;;;;5010373;28;43630;-62
2022/06/22 08:48:05;;;;;;;1.98;1.30;;;20.30;59.60;;;;;;4985863;28;43551;-63
2022/06/22 08:50:49;;;;;;;1.50;1.40;;;20.30;59.70;;;;;;5016574;28;43791;-63
2022/06/22 08:53:26;;;;;;;1.42;1.33;;;20.40;59.80;;;;;;5021405;28;43446;-63
2022/06/22 08:56:22;;;;;;;1.42;1.33;;;20.40;59.80;;;;;;5037914;28;43575;-63
2022/06/22 08:59:17;;;;;;;1.70;1.60;;;20.50;59.60;;;;;;5021936;28;43581;-63
2022/06/22 09:02:10;;;;;;;1.70;1.30;;;20.50;59.50;;;;;;5018989;28;44691;-62
2022/06/22 09:05:15;;;;;;;1.58;1.48;;;20.50;59.60;;;;;;5022325;28;43945;-63
2022/06/22 09:08:01;;;;;;;2.28;1.60;;;20.50;59.60;;;;;;5019536;28;43602;-63
2022/06/22 09:10:47;;;;;;;1.50;1.40;;;20.60;59.40;;;;;;5021168;28;43556;-63
2022/06/22 09:13:36;;;;;;;1.48;1.38;;;20.50;59.40;;;;;;5020705;28;44967;-63
2022/06/22 09:16:25;;;;;;;1.60;1.40;;;20.60;59.50;;;;;;5021125;28;43535;-62
2022/06/22 09:19:05;;;;;;;1.50;1.40;;;20.60;59.50;;;;;;5018967;28;43516;-62
2022/06/22 09:22:02;;;;;;;1.50;1.35;;;20.60;59.40;;;;;;5021602;28;43528;-63
2022/06/22 09:25:08;;;;;;;1.30;1.20;;;20.70;59.60;;;;;;5020787;28;44105;-63
2022/06/22 09:27:47;;;;;;;1.60;1.50;;;20.70;59.60;;;;;;5020465;28;44015;-63
2022/06/22 09:30:22;;;;;;;1.40;1.30;;;20.70;59.60;;;;;;5021363;28;43596;-63
2022/06/22 09:33:29;;;;;;;1.55;1.45;;;20.70;59.60;;;;;;5019017;28;43576;-63
2022/06/22 09:36:00;;;;;;;1.73;1.63;;;20.70;59.70;;;;;;5019545;28;44164;-63
2022/06/22 09:38:59;;;;;;;1.50;1.40;;;20.70;59.70;;;;;;5020662;28;43572;-63
2022/06/22 09:41:55;;;;;;;1.67;1.58;;;20.70;59.70;;;;;;5017227;28;43484;-63
2022/06/22 09:44:31;;;;;;;1.50;1.40;;;20.70;59.60;;;;;;5019391;28;43526;-63
2022/06/22 09:47:36;;;;;;;1.70;1.30;;;20.80;59.70;;;;;;5014279;28;45848;-63
2022/06/22 09:50:10;;;;;;;1.45;1.38;;;20.80;59.80;;;;;;5020685;28;43479;-62
2022/06/22 09:52:50;;;;;;;1.50;1.40;;;20.80;59.80;;;;;;5020828;28;43497;-63
2022/06/22 09:56:22;;;;;;;2.10;1.50;;;20.80;59.70;;;;;;5021706;28;43549;-63
2022/06/22 09:59:18;;;;;;;1.67;1.50;;;20.80;60.00;;;;;;4978601;28;43805;-64
2022/06/22 10:01:52;;;;;;;1.35;1.25;;;20.90;59.80;;;;;;5021886;28;43572;-63
2022/06/22 10:04:40;;;;;;;1.50;1.40;;;20.80;59.80;;;;;;5021262;28;43519;-63
2022/06/22 10:07:13;;;;;;;1.85;1.63;;;20.90;59.70;;;;;;5019487;28;43620;-63
2022/06/22 10:10:01;;;;;;;1.65;1.48;;;20.90;59.80;;;;;;5022029;28;44076;-63
2022/06/22 10:13:08;;;;;;;1.77;1.67;;;20.90;59.70;;;;;;5021689;28;43962;-63
2022/06/22 10:15:57;;;;;;;1.83;1.70;;;20.90;59.70;;;;;;5022201;28;44219;-63
2022/06/22 10:18:42;;;;;;;1.90;1.67;;;20.90;59.80;;;;;;5021419;28;43451;-63
2022/06/22 10:21:35;;;;;;;1.60;1.50;;;20.90;59.90;;;;;;5022393;28;43819;-63
2022/06/22 10:24:14;;;;;;;1.98;1.50;;;20.90;60.00;;;;;;5021883;28;43431;-63
2022/06/22 10:27:35;;;;;;;1.70;1.60;;;20.90;60.00;;;;;;5022959;28;43436;-63
2022/06/22 10:30:25;;;;;;;1.88;1.60;;;21.00;60.00;;;;;;4970333;28;43534;-64
2022/06/22 10:33:08;;;;;;;1.63;1.52;;;21.00;60.00;;;;;;5011518;28;43760;-63
2022/06/22 10:35:47;;;;;;;2.05;1.90;;;21.00;60.00;;;;;;5022391;28;43420;-63
2022/06/22 10:38:24;;;;;;;1.65;1.50;;;21.00;60.00;;;;;;5021736;28;43441;-63
2022/06/22 10:47:34;;;;;;;3.20;2.00;;;21.10;59.90;;;;;;5022187;28;43503;-63
2022/06/22 10:50:17;;;;;;;1.90;1.80;;;21.10;59.70;;;;;;5022068;28;43558;-63
2022/06/22 10:53:08;;;;;;;1.75;1.65;;;21.10;60.10;;;;;;5022007;28;43481;-63
2022/06/22 10:55:42;;;;;;;2.45;2.25;;;21.10;59.90;;;;;;5018355;28;44751;-63
2022/06/22 10:58:10;;;;;;;2.65;1.80;;;21.10;60.20;;;;;;5009316;28;43593;-63
2022/06/22 11:01:03;;;;;;;1.98;1.88;;;21.20;59.90;;;;;;5020804;28;43468;-63
2022/06/22 11:03:46;;;;;;;2.30;2.10;;;21.20;59.90;;;;;;4988518;28;44132;-63
2022/06/22 11:06:22;;;;;;;2.40;1.90;;;21.20;59.80;;;;;;5021175;28;43898;-63
2022/06/22 11:08:58;;;;;;;2.03;1.92;;;21.20;59.80;;;;;;5020605;28;43479;-63
2022/06/22 11:11:52;;;;;;;2.22;2.03;;;21.30;59.90;;;;;;5020063;28;43589;-64
2022/06/22 11:14:28;;;;;;;1.85;1.75;;;21.30;60.10;;;;;;5018712;28;43573;-63
2022/06/22 11:17:16;;;;;;;2.22;1.90;;;21.30;60.20;;;;;;5020593;28;44964;-63
2022/06/22 11:19:49;;;;;;;2.00;1.90;;;21.30;60.00;;;;;;5021268;28;43523;-63
2022/06/22 11:22:49;;;;;;;2.00;1.90;;;21.30;59.90;;;;;;5022021;28;43515;-61
2022/06/22 11:31:40;;;;;;;2.08;1.92;;;21.40;59.60;;;;;;5022731;28;43451;-61
2022/06/22 11:34:32;;;;;;;1.88;1.77;;;21.40;59.70;;;;;;5019564;28;43562;-62
2022/06/22 11:37:09;;;;;;;1.88;1.77;;;21.50;59.40;;;;;;5021942;28;44483;-62
2022/06/22 11:40:25;;;;;;;2.08;1.80;;;21.50;60.20;;;;;;5021155;28;43730;-61
2022/06/22 11:43:11;;;;;;;1.75;1.60;;;21.50;59.40;;;;;;5018897;28;43537;-61
2022/06/22 11:46:00;;;;;;;2.08;1.83;;;21.60;59.60;;;;;;5024069;28;43414;-61
2022/06/22 11:48:46;;;;;;;1.92;1.80;;;21.60;59.70;;;;;;5020953;28;43471;-62
2022/06/22 11:51:33;;;;;;;1.95;1.80;;;21.60;59.90;;;;;;5024620;28;43775;-61
2022/06/22 11:54:11;;;;;;;2.47;2.00;;;21.70;59.90;;;;;;5022933;28;43486;-61
2022/06/22 11:57:01;;;;;;;1.83;1.73;;;21.70;59.80;;;;;;5023930;28;44066;-62
2022/06/22 11:59:34;;;;;;;1.98;1.77;;;21.80;59.80;;;;;;5014411;28;43710;-61
2022/06/22 12:02:39;;;;;;;1.98;1.88;;;21.80;59.70;;;;;;5022920;28;43801;-61
2022/06/22 12:05:24;;;;;;;2.25;1.90;;;21.90;59.80;;;;;;5023591;28;43954;-61
2022/06/22 12:08:10;;;;;;;2.88;1.90;;;21.90;60.00;;;;;;5021427;28;43517;-63
2022/06/22 12:11:06;;;;;;;2.05;1.92;;;22.00;60.00;;;;;;5023664;28;43455;-64
2022/06/22 12:17:12;;;;;;;3.13;2.38;;;22.00;60.10;;;;;;5020650;28;43485;-64
2022/06/22 12:19:54;;;;;;;;;;;22.10;60.50;;;;;;5023616;28;43429;-63
2022/06/22 12:22:41;;;;;;;2.95;2.33;;;22.20;60.60;;;;;;5022224;28;43692;-63
2022/06/22 12:25:22;;;;;;;;;;;22.20;60.50;;;;;;5023773;28;44060;-63
2022/06/22 12:28:00;;;;;;;2.40;2.20;;;22.20;60.30;;;;;;5019378;28;43578;-64
2022/06/22 12:31:16;;;;;;;2.67;2.30;;;22.30;60.40;;;;;;5022349;28;43429;-64
2022/06/22 12:33:52;;;;;;;3.05;2.25;;;22.30;60.40;;;;;;5011443;28;43505;-63
2022/06/22 12:36:36;;;;;;;3.60;2.20;;;22.40;60.50;;;;;;5022906;28;44054;-63
2022/06/22 12:39:06;;;;;;;4.20;2.78;;;22.40;60.50;;;;;;5019396;28;43499;-63
2022/06/22 12:41:40;;;;;;;3.45;2.53;;;22.50;60.40;;;;;;5023823;28;43504;-63
2022/06/22 12:44:45;;;;;;;4.13;2.33;;;22.50;60.30;;;;;;5022693;28;43584;-63
2022/06/22 12:47:50;;;;;;;3.67;2.47;;;22.60;60.10;;;;;;5023442;28;44020;-63
2022/06/22 12:50:45;;;;;;;3.50;2.25;;;22.60;60.30;;;;;;5022076;28;43408;-63
2022/06/22 12:53:28;;;;;;;2.53;2.13;;;22.60;60.10;;;;;;5021416;28;43672;-63
2022/06/22 12:56:06;;;;;;;2.83;2.22;;;22.60;60.10;;;;;;5022653;28;43516;-63
2022/06/22 12:58:50;;;;;;;2.53;2.05;;;22.70;60.00;;;;;;5021993;28;44971;-63
2022/06/22 13:01:18;;;;;;;2.33;2.13;;;22.70;60.10;;;;;;5022145;28;43516;-63
2022/06/22 13:03:59;;;;;;;3.60;2.50;;;22.70;59.90;;;;;;5022441;28;43458;-63
2022/06/22 13:06:30;;;;;;;3.78;2.72;;;22.80;59.80;;;;;;5021831;28;43472;-63
2022/06/22 13:08:58;;;;;;;3.88;2.33;;;22.80;60.00;;;;;;5021037;28;44720;-63
2022/06/22 13:11:29;;;;;;;2.92;2.25;;;22.80;59.80;;;;;;5021574;28;43468;-64
2022/06/22 13:14:06;;;;;;;2.67;2.40;;;22.80;59.80;;;;;;5022454;28;43563;-64
2022/06/22 13:16:59;;;;;;;2.35;2.08;;;22.80;59.80;;;;;;5019944;28;43477;-63
2022/06/22 13:19:56;;;;;;;2.92;2.10;;;22.90;59.60;;;;;;5022231;28;43744;-64
2022/06/22 13:22:39;;;;;;;3.25;2.53;;;22.90;59.70;;;;;;5021735;28;43479;-63
2022/06/22 13:25:18;;;;;;;3.45;2.42;;;22.90;59.60;;;;;;5021163;28;43488;-63
2022/06/22 13:28:03;;;;;;;4.43;2.67;;;22.90;59.50;;;;;;5023296;28;43426;-62
2022/06/22 13:30:31;;;;;;;3.60;2.40;;;22.90;59.60;;;;;;5007582;28;43801;-63
2022/06/22 13:33:07;;;;;;;3.08;2.38;;;23.00;59.60;;;;;;5020858;28;43476;-63
2022/06/22 13:35:43;;;;;;;4.57;2.22;;;23.00;59.50;;;;;;5023272;28;43485;-63
2022/06/22 13:38:35;;;;;;;3.88;2.35;;;23.00;59.30;;;;;;5023447;28;43513;-63
2022/06/22 13:41:28;;;;;;;3.63;2.50;;;23.10;59.40;;;;;;5021815;28;44173;-63
2022/06/22 13:44:33;;;;;;;2.35;2.05;;;23.10;59.50;;;;;;5017958;28;43395;-63
2022/06/22 13:47:38;;;;;;;2.53;2.20;;;23.10;59.40;;;;;;5020461;28;43515;-63
2022/06/22 13:50:19;;;;;;;3.17;2.30;;;23.10;59.50;;;;;;5023556;28;43615;-64
2022/06/22 13:52:50;;;;;;;3.53;2.08;;;23.10;59.40;;;;;;5020294;28;45207;-63
2022/06/22 13:55:44;;;;;;;3.45;2.47;;;23.10;59.50;;;;;;5021538;28;43959;-63
2022/06/22 13:58:19;;;;;;;3.97;2.38;;;23.20;59.50;;;;;;5021616;28;43402;-63
2022/06/22 14:01:28;;;;;;;3.47;2.40;;;23.20;59.40;;;;;;5019739;28;43464;-63
2022/06/22 14:04:05;;;;;;;3.38;2.22;;;23.20;59.30;;;;;;5020282;28;45052;-63
2022/06/22 14:06:59;;;;;;;3.03;2.20;;;23.20;59.30;;;;;;5022098;28;43731;-63
2022/06/22 14:09:51;;;;;;;2.72;2.20;;;23.30;59.30;;;;;;5020570;28;43564;-63
2022/06/22 14:12:36;;;;;;;2.30;2.08;;;23.30;59.20;;;;;;5021044;28;43432;-63
2022/06/22 14:15:54;;;;;;;3.83;2.30;;;23.30;59.30;;;;;;5020320;28;43781;-63
2022/06/22 14:18:21;;;;;;;2.30;2.10;;;23.40;59.10;;;;;;5001970;28;44011;-63
2022/06/22 14:21:13;;;;;;;3.70;2.30;;;23.40;59.10;;;;;;5021978;28;43451;-64
2022/06/22 14:23:42;;;;;;;3.20;2.05;;;23.40;59.10;;;;;;5019626;28;43577;-63
2022/06/22 14:26:22;;;;;;;2.85;2.55;;;23.40;58.90;;;;;;5017403;28;43571;-63
2022/06/22 14:29:08;;;;;;;3.53;2.05;;;23.50;59.00;;;;;;5019860;28;43508;-63